createdAt,value
2019-04-23T00:03:45.920Z,20.68
2019-04-23T00:09:00.595Z,15.62
2019-04-23T00:14:01.268Z,16.30
2019-04-23T00:18:50.924Z,19.19
2019-04-23T00:24:11.770Z,18.66
2019-04-23T00:39:01.278Z,17.19
2019-04-23T00:44:06.371Z,16.76
2019-04-23T00:49:13.638Z,13.69
2019-04-23T00:54:13.599Z,12.10
2019-04-23T00:59:12.624Z,14.69
2019-04-23T01:04:12.384Z,12.35
2019-04-23T01:09:14.151Z,15.38
2019-04-23T01:14:21.547Z,16.47
2019-04-23T01:19:32.044Z,12.44
2019-04-23T01:24:10.081Z,15.11
2019-04-23T01:29:38.849Z,13.16
2019-04-23T01:34:42.429Z,13.15
2019-04-23T01:39:36.477Z,12.93
2019-04-23T01:49:45.051Z,11.09
2019-04-23T01:54:47.216Z,13.35
2019-04-23T01:59:38.649Z,13.38
2019-04-23T02:04:58.801Z,13.96
2019-04-23T02:09:58.680Z,13.08
2019-04-23T02:14:41.696Z,11.24
2019-04-23T02:35:27.587Z,15.28
2019-04-23T02:40:13.608Z,10.62
2019-04-23T02:45:10.242Z,12.72
2019-04-23T03:00:14.184Z,12.15
2019-04-23T03:05:00.832Z,14.65
2019-04-23T03:10:21.086Z,12.91
2019-04-23T03:25:25.275Z,11.80
2019-04-23T03:45:46.531Z,12.86
2019-04-23T03:50:35.992Z,14.67
2019-04-23T03:55:45.739Z,12.11
2019-04-23T04:05:47.251Z,13.20
2019-04-23T04:10:54.967Z,14.76
2019-04-23T04:15:57.099Z,12.95
2019-04-23T04:26:00.799Z,13.83
2019-04-23T04:30:44.761Z,12.03
2019-04-23T04:35:47.331Z,10.05
2019-04-23T04:41:03.097Z,13.16
2019-04-23T04:51:11.410Z,12.78
2019-04-23T04:56:14.306Z,13.31
2019-04-23T05:01:04.065Z,11.35
2019-04-23T05:06:15.701Z,14.62
2019-04-23T05:11:23.727Z,14.12
2019-04-23T05:16:18.174Z,11.93
2019-04-23T05:21:12.165Z,12.02
2019-04-23T05:26:18.679Z,13.15
2019-04-23T05:31:12.086Z,12.70
2019-04-23T05:41:10.123Z,12.04
2019-04-23T05:46:27.802Z,13.82
2019-04-23T05:51:32.692Z,11.85
2019-04-23T05:56:20.665Z,15.54
2019-04-23T06:11:48.513Z,11.13
2019-04-23T06:16:31.558Z,13.56
2019-04-23T06:31:47.189Z,12.42
2019-04-23T06:36:34.353Z,13.84
2019-04-23T06:41:46.537Z,12.21
2019-04-23T06:46:50.237Z,12.01
2019-04-23T06:51:43.785Z,12.24
2019-04-23T06:57:00.669Z,10.91
2019-04-23T07:07:21.735Z,11.41
2019-04-23T07:26:53.104Z,11.54
2019-04-23T07:37:10.848Z,12.90
2019-04-23T07:47:11.782Z,15.63
2019-04-23T07:52:17.972Z,12.13
2019-04-23T07:57:21.880Z,11.91
2019-04-23T08:02:16.352Z,11.34
2019-04-23T08:07:19.961Z,11.95
2019-04-23T08:12:25.831Z,14.40
2019-04-23T08:17:25.814Z,14.24
2019-04-23T08:27:31.103Z,11.89
2019-04-23T08:32:24.245Z,10.22
2019-04-23T08:37:47.902Z,10.95
2019-04-23T08:47:29.890Z,9.21
2019-04-23T08:52:30.004Z,7.07
2019-04-23T08:57:38.315Z,7.14
2019-04-23T09:02:35.312Z,8.70
2019-04-23T09:07:57.426Z,6.43
2019-04-23T09:12:53.644Z,6.21
2019-04-23T09:17:55.496Z,6.29
2019-04-23T09:22:50.065Z,6.35
2019-04-23T09:27:47.367Z,7.13
2019-04-23T09:32:53.998Z,5.11
2019-04-23T09:38:03.673Z,6.24
2019-04-23T09:43:08.110Z,5.70
2019-04-23T09:53:08.470Z,4.49
2019-04-23T09:58:07.930Z,6.44
2019-04-23T10:02:56.853Z,4.52
2019-04-23T10:07:51.983Z,6.95
2019-04-23T10:12:48.334Z,6.39
2019-04-23T10:17:52.082Z,3.91
2019-04-23T10:22:54.456Z,11.97
2019-04-23T10:28:01.101Z,10.77
2019-04-23T10:32:57.858Z,6.47
2019-04-23T10:38:04.405Z,5.29
2019-04-23T10:43:03.438Z,5.20
2019-04-23T10:48:34.934Z,7.77
2019-04-23T10:58:35.431Z,5.21
2019-04-23T11:03:49.290Z,6.09
2019-04-23T11:08:37.905Z,6.07
2019-04-23T11:13:54.874Z,7.05
2019-04-23T11:28:44.936Z,9.26
2019-04-23T11:33:42.978Z,7.08
2019-04-23T11:39:00.701Z,6.98
2019-04-23T11:43:55.647Z,6.52
2019-04-23T11:58:47.654Z,5.96
2019-04-23T12:04:14.102Z,7.05
2019-04-23T12:14:03.127Z,6.81
2019-04-23T12:19:35.660Z,10.09
2019-04-23T12:29:21.121Z,6.44
2019-04-23T12:39:21.958Z,6.31
2019-04-23T12:44:14.868Z,6.22
2019-04-23T12:54:41.262Z,6.41
2019-04-23T12:59:28.755Z,5.38
2019-04-23T13:04:37.917Z,5.21
2019-04-23T13:09:34.769Z,6.89
2019-04-23T13:14:43.721Z,5.18
2019-04-23T13:29:42.889Z,4.67
2019-04-23T13:34:50.607Z,6.58
2019-04-23T13:39:43.949Z,5.45
2019-04-23T13:44:49.982Z,4.99
2019-04-23T13:49:52.722Z,5.28
2019-04-23T13:59:44.995Z,6.20
2019-04-23T14:10:08.454Z,12.48
2019-04-23T14:15:06.478Z,4.49
2019-04-23T14:20:07.222Z,4.97
2019-04-23T14:30:16.536Z,4.13
2019-04-23T14:35:21.696Z,4.46
2019-04-23T14:40:15.752Z,5.76
2019-04-23T14:45:36.771Z,5.48
2019-04-23T14:50:24.055Z,4.80
2019-04-23T15:00:29.377Z,6.52
2019-04-23T15:05:27.650Z,5.68
2019-04-23T15:10:24.564Z,7.91
2019-04-23T15:15:27.054Z,7.38
2019-04-23T15:20:21.300Z,4.93
2019-04-23T15:25:53.138Z,7.27
2019-04-23T15:30:32.227Z,7.18
2019-04-23T15:40:32.929Z,9.44
2019-04-23T15:45:42.472Z,10.02
2019-04-23T15:50:48.676Z,9.07
2019-04-23T16:00:55.844Z,15.32
2019-04-23T16:05:23.273Z,11.50
2019-04-23T16:21:10.616Z,9.15
2019-04-23T16:26:08.725Z,8.56
2019-04-23T16:36:10.977Z,8.54
2019-04-23T17:01:10.168Z,8.61
2019-04-23T17:06:23.579Z,9.44
2019-04-23T17:21:32.417Z,9.11
2019-04-23T17:26:26.056Z,12.48
2019-04-23T17:36:39.411Z,9.68
2019-04-23T17:41:38.824Z,11.22
2019-04-23T17:46:42.798Z,10.07
2019-04-23T18:02:08.182Z,8.62
2019-04-23T18:06:53.961Z,10.07
2019-04-23T18:16:57.222Z,9.24
2019-04-23T18:22:02.574Z,13.33
2019-04-23T18:32:15.128Z,7.21
2019-04-23T18:37:12.132Z,11.57
2019-04-23T18:42:18.718Z,9.12
2019-04-23T18:47:14.532Z,11.76
2019-04-23T18:52:30.991Z,9.55
2019-04-23T18:57:12.831Z,11.86
2019-04-23T19:02:45.365Z,11.86
2019-04-23T19:07:43.112Z,9.87
2019-04-23T19:12:30.186Z,14.14
2019-04-23T19:22:38.762Z,12.04
2019-04-23T19:27:37.094Z,9.96
2019-04-23T19:42:43.938Z,11.45
2019-04-23T19:52:53.418Z,10.51
2019-04-23T19:57:50.504Z,13.05
2019-04-23T20:02:58.250Z,14.94
2019-04-23T20:07:54.871Z,13.78
2019-04-23T20:12:46.425Z,12.40
2019-04-23T20:22:55.385Z,17.77
2019-04-23T20:43:07.655Z,11.21
2019-04-23T20:52:57.498Z,14.93
2019-04-23T20:58:09.502Z,15.21
2019-04-23T21:08:14.191Z,10.53
2019-04-23T21:18:35.878Z,11.09
2019-04-23T21:23:17.686Z,10.71
2019-04-23T21:33:17.511Z,12.02
2019-04-23T21:38:47.550Z,11.57
2019-04-23T21:43:47.561Z,7.51
2019-04-23T21:53:42.655Z,9.27
2019-04-23T21:58:35.017Z,12.79
2019-04-23T22:03:56.607Z,8.80
2019-04-23T22:08:45.889Z,10.61
2019-04-23T22:29:05.650Z,9.63
2019-04-23T22:34:02.669Z,9.67
2019-04-23T22:38:59.568Z,10.63
2019-04-23T22:44:07.293Z,9.69
2019-04-23T22:59:01.963Z,7.91
2019-04-23T23:03:58.911Z,8.65
2019-04-23T23:09:18.880Z,9.38
2019-04-23T23:14:18.893Z,9.71
2019-04-23T23:19:25.574Z,9.94
2019-04-23T23:24:16.917Z,10.48
2019-04-23T23:29:13.532Z,11.05
2019-04-23T23:34:06.856Z,9.06
2019-04-23T23:39:16.015Z,8.93
2019-04-23T23:44:33.463Z,10.41
2019-04-23T23:49:27.926Z,8.04
2019-04-23T23:54:13.932Z,10.51
2019-04-23T23:59:32.458Z,9.02
